Time;durP1;ratioP1;P1;durP2;ratioP2;P2;SDS_P1;SDS_P2;PMS_P1;PMS_P2;Temp;Humidity;BMP_temperature;BMP_pressure;BME280_temperature;BME280_humidity;BME280_pressure;Samples;Min_cycle;Max_cycle;Signal;HPM_P1;HPM_P2
2024/03/09 00:00:33;;;;;;;38.95;21.83;;;;;;;8.12;50.64;100476.03;4926988;28;113802;-64
2024/03/09 00:03:01;;;;;;;35.95;21.25;;;;;;;8.09;50.89;100476.16;4924069;28;123445;-64
2024/03/09 00:05:29;;;;;;;41.83;21.15;;;;;;;8.06;50.42;100469.25;4928638;28;122622;-64
2024/03/09 00:07:58;;;;;;;41.63;21.30;;;;;;;8.04;50.72;100470.22;4916692;28;114777;-64
2024/03/09 00:10:28;;;;;;;40.83;21.23;;;;;;;8.01;50.52;100467.72;4931792;28;114449;-64
2024/03/09 00:12:59;;;;;;;42.20;21.83;;;;;;;7.99;50.75;100463.34;4927689;28;124665;-64
2024/03/09 00:15:28;;;;;;;41.90;22.10;;;;;;;7.97;50.74;100459.91;4933119;28;123831;-65
2024/03/09 00:17:56;;;;;;;42.58;22.33;;;;;;;7.95;51.04;100453.84;4928242;28;113780;-65
2024/03/09 00:20:28;;;;;;;40.38;21.58;;;;;;;7.90;51.12;100455.81;4927389;28;114300;-64
2024/03/09 00:22:57;;;;;;;41.17;21.13;;;;;;;7.89;51.00;100448.84;4937844;28;124253;-64
2024/03/09 00:25:28;;;;;;;44.80;21.92;;;;;;;7.87;51.18;100455.91;4926858;28;123874;-64
2024/03/09 00:27:58;;;;;;;43.35;21.63;;;;;;;7.85;51.17;100449.84;4924856;28;115643;-64
2024/03/09 00:30:29;;;;;;;39.97;21.17;;;;;;;7.83;51.03;100449.06;4927639;28;114383;-64
2024/03/09 00:32:59;;;;;;;43.47;22.63;;;;;;;7.81;51.42;100450.91;4927827;28;124017;-64
2024/03/09 00:35:27;;;;;;;42.50;22.35;;;;;;;7.81;51.27;100445.63;4924349;28;124551;-64
2024/03/09 00:37:58;;;;;;;46.33;22.50;;;;;;;7.80;51.14;100441.28;4930892;28;113447;-64
2024/03/09 00:40:30;;;;;;;42.47;22.00;;;;;;;7.80;51.25;100438.66;4929364;28;114319;-64
2024/03/09 00:43:04;;;;;;;38.15;21.35;;;;;;;7.78;51.21;100437.84;4930648;28;123851;-64
2024/03/09 00:45:32;;;;;;;37.35;20.58;;;;;;;7.77;51.25;100428.22;4931773;28;124029;-64
2024/03/09 00:48:00;;;;;;;39.65;21.15;;;;;;;7.74;51.08;100423.94;4929154;28;114600;-64
2024/03/09 00:50:27;;;;;;;44.67;21.05;;;;;;;7.73;51.52;100421.34;4925367;28;114234;-65
2024/03/09 00:52:55;;;;;;;43.90;21.92;;;;;;;7.72;51.74;100419.63;4927748;28;124378;-64
2024/03/09 00:55:24;;;;;;;42.83;22.10;;;;;;;7.72;51.21;100419.63;4924459;28;123955;-64
2024/03/09 00:57:53;;;;;;;42.45;20.55;;;;;;;7.70;51.23;100421.47;4930376;28;115118;-65
2024/03/09 01:00:23;;;;;;;44.00;22.63;;;;;;;7.69;51.62;100430.31;4930159;28;114328;-64
2024/03/09 01:02:52;;;;;;;45.35;23.25;;;;;;;7.69;51.63;100446.13;4925447;28;124016;-64
2024/03/09 01:05:22;;;;;;;40.53;21.30;;;;;;;7.70;51.66;100443.41;4929779;28;123779;-64
2024/03/09 01:07:51;;;;;;;38.60;21.88;;;;;;;7.72;51.43;100440.72;4925229;28;114335;-64
2024/03/09 01:10:19;;;;;;;40.08;21.75;;;;;;;7.74;51.53;100438.88;4917580;28;114303;-64
2024/03/09 01:12:47;;;;;;;43.00;22.10;;;;;;;7.74;51.89;100428.31;4929390;28;124541;-64
2024/03/09 01:15:16;;;;;;;42.10;21.55;;;;;;;7.75;51.88;100424.78;4929865;28;125313;-64
2024/03/09 01:17:43;;;;;;;42.35;21.83;;;;;;;7.75;51.66;100419.50;4920136;28;116300;-64
2024/03/09 01:20:12;;;;;;;43.80;22.88;;;;;;;7.72;51.70;100419.63;4926437;28;114894;-64
2024/03/09 01:22:43;;;;;;;42.47;21.92;;;;;;;7.71;51.40;100417.94;4928563;28;124632;-65
2024/03/09 01:25:12;;;;;;;42.47;22.52;;;;;;;7.70;51.84;100422.31;4925991;28;123902;-64
2024/03/09 01:27:40;;;;;;;42.53;21.50;;;;;;;7.69;51.47;100419.78;4930955;28;114472;-64
2024/03/09 01:30:09;;;;;;;40.53;21.83;;;;;;;7.68;51.58;100418.03;4914034;28;113171;-65
2024/03/09 01:32:40;;;;;;;50.40;22.83;;;;;;;7.65;51.43;100411.13;4927957;28;124103;-64
2024/03/09 01:35:08;;;;;;;42.95;22.65;;;;;;;7.64;51.63;100403.28;4922300;28;124057;-65
2024/03/09 01:37:37;;;;;;;41.25;21.60;;;;;;;7.62;51.78;100402.47;4928366;28;114248;-64
2024/03/09 01:40:06;;;;;;;41.97;22.58;;;;;;;7.60;51.85;100406.00;4924374;28;114093;-64
2024/03/09 01:42:33;;;;;;;40.03;21.73;;;;;;;7.58;51.72;100394.69;4915670;28;123817;-64
2024/03/09 01:45:07;;;;;;;45.88;22.40;;;;;;;7.55;51.55;100392.19;4929566;28;123838;-65
2024/03/09 01:47:36;;;;;;;40.13;22.05;;;;;;;7.52;51.74;100387.03;4925659;28;114119;-64
2024/03/09 01:50:10;;;;;;;44.47;22.00;;;;;;;7.49;51.77;100392.41;4930122;28;114486;-64
2024/03/09 01:52:43;;;;;;;39.42;22.20;;;;;;;7.49;51.78;100386.28;4926940;28;123277;-64
2024/03/09 01:55:11;;;;;;;40.35;21.45;;;;;;;7.45;51.74;100385.56;4922028;28;123831;-65
2024/03/09 01:57:38;;;;;;;42.53;22.50;;;;;;;7.44;51.91;100378.59;4930578;28;114707;-64
2024/03/09 02:00:09;;;;;;;42.17;21.90;;;;;;;7.42;51.99;100380.38;4930119;28;114965;-64
2024/03/09 02:02:37;;;;;;;43.08;21.02;;;;;;;7.38;51.81;100379.69;4917963;28;124502;-64
2024/03/09 02:05:10;;;;;;;42.13;22.23;;;;;;;7.37;51.73;100374.47;4927312;28;124552;-64
2024/03/09 02:07:40;;;;;;;45.28;21.27;;;;;;;7.34;51.72;100371.94;4929285;28;115066;-64
2024/03/09 02:10:11;;;;;;;41.55;21.02;;;;;;;7.30;51.70;100360.66;4924070;28;115288;-64
2024/03/09 02:12:42;;;;;;;42.45;22.20;;;;;;;7.28;51.83;100361.66;4924676;28;124148;-64
2024/03/09 02:15:17;;;;;;;42.90;21.80;;;;;;;7.25;51.84;100367.03;4919344;28;120981;-64
2024/03/09 02:17:47;;;;;;;46.03;22.63;;;;;;;7.20;51.83;100352.28;4917712;28;114563;-64
2024/03/09 02:20:16;;;;;;;41.67;20.70;;;;;;;7.17;52.25;100349.75;4918660;28;113640;-65
2024/03/09 02:22:46;;;;;;;42.20;22.02;;;;;;;7.15;51.98;100351.59;4925778;28;122169;-64
2024/03/09 02:25:15;;;;;;;39.25;20.92;;;;;;;7.14;51.94;100351.63;4917928;28;125024;-64
2024/03/09 02:27:43;;;;;;;41.90;21.50;;;;;;;7.12;52.34;100349.09;4924170;28;115538;-64
2024/03/09 02:30:11;;;;;;;43.65;21.92;;;;;;;7.11;52.49;100344.72;4925341;28;113608;-64
2024/03/09 02:32:42;;;;;;;41.15;22.30;;;;;;;7.11;52.12;100336.81;4928487;28;122994;-64
2024/03/09 02:35:10;;;;;;;43.78;21.33;;;;;;;7.10;52.55;100335.13;4923004;28;124621;-64
2024/03/09 02:37:37;;;;;;;44.63;22.13;;;;;;;7.10;52.19;100332.50;4916017;28;113502;-64
2024/03/09 02:40:07;;;;;;;44.63;21.42;;;;;;;7.09;52.45;100329.91;4921238;28;113583;-64
2024/03/09 02:42:38;;;;;;;46.20;21.65;;;;;;;7.09;52.46;100333.41;4920159;28;124312;-64
2024/03/09 02:45:07;;;;;;;47.25;21.30;;;;;;;7.09;52.69;100333.41;4923904;28;123889;-65
2024/03/09 02:47:35;;;;;;;41.25;21.13;;;;;;;7.08;52.58;100331.66;4927494;28;113150;-64
2024/03/09 02:50:03;;;;;;;44.30;22.45;;;;;;;7.08;52.49;100328.19;4921613;28;114381;-64
2024/03/09 02:52:31;;;;;;;45.80;22.35;;;;;;;7.08;52.38;100334.31;4924514;28;124076;-64
2024/03/09 02:55:00;;;;;;;45.42;22.13;;;;;;;7.09;52.37;100330.75;4926251;28;124645;-64
2024/03/09 02:57:27;;;;;;;43.40;22.23;;;;;;;7.09;52.51;100320.22;4924500;28;115168;-64
2024/03/09 02:59:55;;;;;;;44.70;22.08;;;;;;;7.11;52.66;100323.66;4935870;28;114982;-64
2024/03/09 03:05:08;;;;;;;44.72;21.95;;;;;;;7.14;52.83;100315.66;4919006;28;123892;-64
2024/03/09 03:07:36;;;;;;;40.92;22.38;;;;;;;7.15;52.90;100314.72;4913044;28;114289;-64
2024/03/09 03:10:08;;;;;;;40.50;21.02;;;;;;;7.16;52.93;100311.19;4928390;28;114527;-64
2024/03/09 03:12:37;;;;;;;45.38;22.10;;;;;;;7.18;53.13;100313.75;4929597;28;124118;-64
2024/03/09 03:15:08;;;;;;;41.70;22.58;;;;;;;7.19;53.13;100305.78;4919170;28;124215;-64
2024/03/09 03:17:36;;;;;;;42.08;22.35;;;;;;;7.20;52.87;100307.50;4924602;28;115080;-64
2024/03/09 03:20:06;;;;;;;43.80;21.35;;;;;;;7.22;53.01;100295.13;4917724;28;114159;-64
2024/03/09 03:22:34;;;;;;;42.30;21.33;;;;;;;7.25;53.16;100303.81;4921496;28;124036;-64
2024/03/09 03:25:02;;;;;;;41.97;21.83;;;;;;;7.27;52.96;100296.72;4924396;28;124354;-64
2024/03/09 03:27:29;;;;;;;44.38;20.92;;;;;;;7.32;53.11;100307.94;4923054;28;114441;-64
2024/03/09 03:29:58;;;;;;;42.42;20.95;;;;;;;7.33;53.31;100301.75;4926443;28;114356;-64
2024/03/09 03:32:26;;;;;;;44.25;21.95;;;;;;;7.34;53.16;100300.81;4920460;28;124094;-65
2024/03/09 03:34:53;;;;;;;39.42;20.70;;;;;;;7.35;52.84;100297.28;4918842;28;123508;-64
2024/03/09 03:37:21;;;;;;;41.83;21.80;;;;;;;7.38;53.31;100297.13;4925083;28;113495;-64
2024/03/09 03:39:49;;;;;;;43.60;21.67;;;;;;;7.39;53.04;100302.34;4930069;28;115510;-64
2024/03/09 03:42:16;;;;;;;41.03;20.15;;;;;;;7.41;53.26;100300.50;4926384;28;123150;-64
2024/03/09 03:44:43;;;;;;;40.00;21.13;;;;;;;7.43;53.13;100292.53;4918437;28;124462;-64
2024/03/09 03:47:13;;;;;;;42.85;21.77;;;;;;;7.43;52.92;100297.81;4925112;28;114493;-64
2024/03/09 03:49:41;;;;;;;39.00;20.80;;;;;;;7.44;53.17;100296.91;4927673;28;115034;-64
2024/03/09 03:52:08;;;;;;;39.42;20.52;;;;;;;7.44;53.14;100291.63;4927741;28;124420;-64
2024/03/09 03:54:36;;;;;;;43.38;21.02;;;;;;;7.46;53.15;100292.44;4923248;28;123874;-64
2024/03/09 03:57:04;;;;;;;41.20;20.17;;;;;;;7.46;52.95;100281.88;4930635;28;114228;-64
2024/03/09 03:59:34;;;;;;;42.00;22.15;;;;;;;7.45;52.92;100285.44;4929474;28;113320;-64
2024/03/09 04:02:06;;;;;;;40.47;21.95;;;;;;;7.44;53.21;100277.59;4927155;28;123636;-64
2024/03/09 04:04:36;;;;;;;41.08;20.70;;;;;;;7.43;53.17;100274.09;4926816;28;123553;-65
2024/03/09 04:07:04;;;;;;;39.83;20.73;;;;;;;7.41;53.24;100275.94;4929690;28;112984;-64
2024/03/09 04:09:32;;;;;;;42.33;20.88;;;;;;;7.41;53.34;100278.56;4930816;28;114363;-64
2024/03/09 04:12:00;;;;;;;42.40;21.45;;;;;;;7.40;52.98;100274.22;4924460;28;123651;-64
2024/03/09 04:14:28;;;;;;;43.38;21.42;;;;;;;7.40;53.15;100271.59;4931066;28;124628;-64
2024/03/09 04:16:57;;;;;;;40.45;20.58;;;;;;;7.42;52.85;100275.00;4932521;28;114342;-64
2024/03/09 04:19:24;;;;;;;38.17;19.63;;;;;;;7.42;52.96;100275.00;4926701;28;114082;-64
2024/03/09 04:21:52;;;;;;;40.40;20.60;;;;;;;7.42;53.09;100269.75;4930052;28;123780;-64
2024/03/09 04:24:19;;;;;;;38.17;20.08;;;;;;;7.43;53.39;100271.47;4930608;28;124300;-65
2024/03/09 04:26:46;;;;;;;38.65;20.60;;;;;;;7.44;53.31;100273.19;4928641;28;114626;-64
2024/03/09 04:29:14;;;;;;;39.05;19.65;;;;;;;7.47;53.36;100273.03;4929873;28;114083;-64
2024/03/09 04:31:44;;;;;;;36.38;19.83;;;;;;;7.49;53.24;100276.47;4931313;28;124049;-65
2024/03/09 04:34:12;;;;;;;35.05;18.75;;;;;;;7.50;53.36;100272.94;4935041;28;123912;-64
2024/03/09 04:36:40;;;;;;;39.13;19.25;;;;;;;7.53;53.64;100267.50;4939519;28;115953;-65
2024/03/09 04:39:09;;;;;;;37.85;19.52;;;;;;;7.54;53.29;100263.97;4930123;28;115008;-64
2024/03/09 04:41:37;;;;;;;38.95;20.27;;;;;;;7.56;53.34;100262.13;4920646;28;125119;-64
2024/03/09 04:44:04;;;;;;;36.78;20.63;;;;;;;7.58;53.20;100260.28;4930301;28;123503;-64
2024/03/09 04:46:36;;;;;;;38.90;19.67;;;;;;;7.59;53.09;100259.38;4925411;28;114287;-65
2024/03/09 04:49:03;;;;;;;34.25;18.73;;;;;;;7.63;53.35;100256.59;4931285;28;113962;-64
2024/03/09 04:51:31;;;;;;;35.25;18.77;;;;;;;7.64;53.23;100253.91;4942981;28;123018;-64
2024/03/09 04:53:59;;;;;;;35.70;19.00;;;;;;;7.65;53.45;100254.75;4930144;28;123819;-65
2024/03/09 04:56:26;;;;;;;33.13;18.13;;;;;;;7.67;53.49;100258.19;4918203;28;114390;-64
2024/03/09 04:58:53;;;;;;;37.47;19.27;;;;;;;7.69;53.21;100251.09;4918561;28;114115;-65
2024/03/09 05:01:21;;;;;;;36.20;17.63;;;;;;;7.71;53.04;100254.50;4924290;28;122940;-64
2024/03/09 05:03:48;;;;;;;36.42;19.73;;;;;;;7.72;53.39;100253.56;4925845;28;124032;-64
2024/03/09 05:06:15;;;;;;;33.80;17.83;;;;;;;7.74;53.21;100246.44;4930906;28;115177;-65
2024/03/09 05:08:44;;;;;;;36.55;17.77;;;;;;;7.75;53.43;100245.53;4920853;28;113727;-64
2024/03/09 05:11:13;;;;;;;35.33;17.58;;;;;;;7.77;53.44;100238.41;4933374;28;124760;-64
2024/03/09 05:13:40;;;;;;;32.75;17.70;;;;;;;7.80;53.27;100243.56;4926337;28;124158;-64
2024/03/09 05:16:08;;;;;;;35.58;17.15;;;;;;;7.80;53.18;100248.84;4928716;28;114468;-64
2024/03/09 05:18:35;;;;;;;35.67;18.23;;;;;;;7.81;53.42;100240.00;4928355;28;114135;-65
2024/03/09 05:21:03;;;;;;;38.63;17.92;;;;;;;7.82;53.42;100235.56;4925661;28;123850;-65
2024/03/09 05:23:30;;;;;;;34.78;18.50;;;;;;;7.84;53.39;100228.47;4934219;28;122877;-64
2024/03/09 05:25:58;;;;;;;37.17;17.65;;;;;;;7.84;53.22;100229.31;4920824;28;115657;-64
2024/03/09 05:28:25;;;;;;;35.72;17.95;;;;;;;7.85;53.26;100225.75;4926444;28;113289;-64
2024/03/09 05:30:53;;;;;;;33.58;17.00;;;;;;;7.86;52.95;100232.75;4927509;28;123836;-64
2024/03/09 05:33:20;;;;;;;35.55;18.52;;;;;;;7.86;53.34;100227.47;4922668;28;123949;-65
2024/03/09 05:35:47;;;;;;;32.60;17.80;;;;;;;7.86;53.06;100216.94;4926918;28;115189;-64
2024/03/09 05:38:15;;;;;;;35.40;19.15;;;;;;;7.85;53.28;100215.19;4923055;28;114538;-64
2024/03/09 05:40:42;;;;;;;34.53;17.80;;;;;;;7.83;53.03;100211.78;4927343;28;123956;-64
2024/03/09 05:43:11;;;;;;;38.20;18.40;;;;;;;7.81;52.99;100211.00;4928656;28;124218;-64
2024/03/09 05:45:41;;;;;;;36.50;16.75;;;;;;;7.80;53.07;100211.94;4929072;28;113237;-64
2024/03/09 05:48:08;;;;;;;25.58;10.45;;;;;;;7.79;53.05;100204.94;4923231;28;114144;-64
2024/03/09 05:50:37;;;;;;;26.23;10.80;;;;;;;7.79;52.84;100204.94;4920458;28;124076;-64
2024/03/09 05:53:08;;;;;;;25.30;10.93;;;;;;;7.77;52.69;100197.09;4928575;28;96837;-64
2024/03/09 05:55:39;;;;;;;25.13;10.13;;;;;;;7.75;52.90;100192.81;4921489;28;114468;-64
2024/03/09 05:58:07;;;;;;;25.17;10.45;;;;;;;7.73;52.75;100194.66;4927748;28;114545;-64
2024/03/09 06:00:36;;;;;;;25.73;10.30;;;;;;;7.72;53.21;100192.94;4926690;28;124019;-66
2024/03/09 06:03:06;;;;;;;27.85;10.88;;;;;;;7.72;52.79;100192.94;4931605;28;124439;-64
2024/03/09 06:05:35;;;;;;;29.58;10.75;;;;;;;7.73;53.18;100199.94;4930431;28;114536;-64
2024/03/09 06:08:03;;;;;;;26.77;9.77;;;;;;;7.73;53.02;100195.53;4926476;28;114199;-64
2024/03/09 06:10:31;;;;;;;26.48;9.82;;;;;;;7.75;53.29;100200.72;4925147;28;123791;-64
2024/03/09 06:13:06;;;;;;;24.83;9.95;;;;;;;7.76;53.14;100194.53;4928831;28;124000;-64
2024/03/09 06:15:33;;;;;;;27.05;10.93;;;;;;;7.78;53.17;100198.81;4922769;28;115059;-64
2024/03/09 06:18:01;;;;;;;27.52;10.85;;;;;;;7.79;52.88;100199.66;4933511;28;116643;-64
2024/03/09 06:20:32;;;;;;;28.33;11.25;;;;;;;7.80;52.85;100191.69;4920659;28;123028;-64
2024/03/09 06:23:02;;;;;;;23.50;10.23;;;;;;;7.82;53.17;100183.72;4928394;28;123499;-64
2024/03/09 06:25:30;;;;;;;24.60;10.10;;;;;;;7.81;53.22;100182.00;4929665;28;114147;-64
2024/03/09 06:28:02;;;;;;;25.98;10.68;;;;;;;7.82;53.10;100209.22;4929430;28;114106;-64
2024/03/09 06:30:30;;;;;;;27.20;10.10;;;;;;;7.86;53.28;100201.13;4935528;28;124105;-64
2024/03/09 06:33:00;;;;;;;25.42;10.48;;;;;;;7.90;52.92;100207.97;4927798;28;124134;-65
2024/03/09 06:35:32;;;;;;;25.10;9.73;;;;;;;7.94;53.15;100214.81;4929830;28;114273;-65
2024/03/09 06:38:01;;;;;;;31.80;10.90;;;;;;;7.99;52.91;100209.34;4907079;28;112800;-64
2024/03/09 06:40:31;;;;;;;27.90;12.27;;;;;;;8.01;52.85;100204.84;4929796;28;124800;-64
2024/03/09 06:43:06;;;;;;;28.58;12.43;;;;;;;8.04;53.00;100209.13;4929389;28;124599;-64
2024/03/09 06:45:42;;;;;;;25.42;11.80;;;;;;;8.07;53.04;100219.53;4925936;28;114743;-64
2024/03/09 06:48:09;;;;;;;25.30;11.77;;;;;;;8.12;52.92;100212.28;4922478;28;114123;-65
2024/03/09 06:50:43;;;;;;;25.00;11.52;;;;;;;8.15;53.18;100204.22;4920866;28;123021;-65
2024/03/09 06:53:11;;;;;;;29.13;12.50;;;;;;;8.19;53.23;100208.44;4918434;28;122823;-64
2024/03/09 06:55:42;;;;;;;30.30;12.50;;;;;;;8.22;53.13;100218.84;4924100;28;113358;-64
2024/03/09 06:58:11;;;;;;;26.48;12.20;;;;;;;8.26;52.97;100204.59;4929036;28;114190;-65
2024/03/09 07:00:40;;;;;;;22.77;11.40;;;;;;;8.29;52.90;100209.75;4927189;28;124132;-64
2024/03/09 07:03:07;;;;;;;24.25;11.65;;;;;;;8.33;53.00;100211.31;4929292;28;124204;-65
2024/03/09 07:05:35;;;;;;;22.52;11.57;;;;;;;8.38;52.92;100211.94;4929033;28;115528;-64
2024/03/09 07:08:05;;;;;;;25.98;12.40;;;;;;;8.41;53.00;100203.03;4919355;28;115055;-64
2024/03/09 07:10:34;;;;;;;25.60;12.20;;;;;;;8.46;52.88;100210.78;4925284;28;123736;-64
2024/03/09 07:13:04;;;;;;;25.80;11.90;;;;;;;8.48;53.06;100219.47;4927845;28;125081;-64
2024/03/09 07:15:31;;;;;;;26.17;11.75;;;;;;;8.50;52.93;100218.47;4928109;28;114840;-64
2024/03/09 07:17:59;;;;;;;27.02;11.85;;;;;;;8.53;52.86;100222.75;4922297;28;114188;-63
2024/03/09 07:20:27;;;;;;;25.05;11.02;;;;;;;8.56;53.02;100223.47;4926111;28;124243;-64
2024/03/09 07:22:56;;;;;;;23.85;11.18;;;;;;;8.60;53.07;100216.25;4929560;28;123884;-64
2024/03/09 07:25:26;;;;;;;22.08;10.30;;;;;;;8.63;53.10;100229.31;4921613;28;114486;-64
2024/03/09 07:27:56;;;;;;;28.65;12.07;;;;;;;8.67;53.13;100220.31;4919769;28;113757;-64
2024/03/09 07:30:24;;;;;;;27.38;12.10;;;;;;;8.74;53.14;100224.38;4920449;28;124293;-64
2024/03/09 07:32:53;;;;;;;20.75;9.95;;;;;;;8.81;53.21;100210.88;4936481;28;123030;-64
2024/03/09 07:35:27;;;;;;;22.52;10.43;;;;;;;8.87;52.78;100211.47;4932712;28;113792;-64
2024/03/09 07:37:58;;;;;;;22.80;11.23;;;;;;;8.96;53.32;100220.72;4931489;28;113327;-64
2024/03/09 07:40:36;;;;;;;23.80;10.90;;;;;;;9.06;53.10;100222.00;4932263;28;123958;-64
2024/03/09 07:43:05;;;;;;;30.15;12.40;;;;;;;9.18;53.08;100214.38;4932080;28;123900;-64
2024/03/09 07:45:33;;;;;;;24.60;10.85;;;;;;;9.29;53.22;100217.34;4925561;28;114261;-64
2024/03/09 07:48:01;;;;;;;23.73;10.57;;;;;;;9.40;53.25;100209.75;4919693;28;114137;-64
2024/03/09 07:50:29;;;;;;;23.02;10.95;;;;;;;9.52;52.86;100214.41;4928216;28;124046;-64
2024/03/09 07:52:57;;;;;;;22.42;11.05;;;;;;;9.62;53.06;100206.00;4927810;28;123256;-64
2024/03/09 07:55:26;;;;;;;22.85;10.90;;;;;;;9.70;53.05;100209.09;4930558;28;115292;-64
2024/03/09 07:57:54;;;;;;;20.98;10.38;;;;;;;9.78;53.05;100209.56;4930001;28;115173;-64
2024/03/09 08:00:40;;;;;;;21.13;10.27;;;;;;;9.87;52.99;100210.84;4931168;28;124700;-64
2024/03/09 08:03:07;;;;;;;22.10;10.30;;;;;;;9.95;52.69;100206.03;4929601;28;123958;-64
2024/03/09 08:05:34;;;;;;;19.23;9.80;;;;;;;10.02;52.82;100201.25;4926857;28;113658;-64
2024/03/09 08:08:09;;;;;;;19.65;9.95;;;;;;;10.09;52.72;100197.34;4926269;28;113562;-64
2024/03/09 08:10:46;;;;;;;19.13;9.15;;;;;;;10.18;52.63;100186.28;4926466;28;124810;-64
2024/03/09 08:13:19;;;;;;;18.48;9.68;;;;;;;10.25;52.50;100171.78;4932310;28;123897;-65
2024/03/09 08:15:53;;;;;;;19.67;9.93;;;;;;;10.32;52.52;100194.38;4928543;28;114484;-65
2024/03/09 08:18:21;;;;;;;19.27;9.00;;;;;;;10.41;52.63;100202.75;4935304;28;114669;-64
2024/03/09 08:20:49;;;;;;;18.65;9.82;;;;;;;10.50;52.59;100191.66;4925133;28;123944;-64
2024/03/09 08:23:17;;;;;;;18.13;8.82;;;;;;;10.60;52.29;100203.41;4925731;28;124683;-64
2024/03/09 08:25:45;;;;;;;20.88;9.27;;;;;;;10.67;52.16;100183.63;4928313;28;113562;-64
2024/03/09 08:28:12;;;;;;;17.33;8.50;;;;;;;10.78;52.28;100192.75;4916629;28;114530;-64
2024/03/09 08:30:41;;;;;;;17.98;9.25;;;;;;;10.86;52.32;100194.03;4927208;28;123895;-64
2024/03/09 08:33:09;;;;;;;19.20;8.95;;;;;;;10.96;52.17;100188.19;4920953;28;124003;-64
2024/03/09 08:35:36;;;;;;;16.20;8.07;;;;;;;11.07;52.23;100186.63;4921042;28;114381;-64
2024/03/09 08:38:06;;;;;;;19.50;8.38;;;;;;;11.18;52.28;100177.22;4928456;28;114075;-64
2024/03/09 08:40:34;;;;;;;19.63;8.60;;;;;;;11.29;52.08;100185.41;4930878;28;124083;-64
2024/03/09 08:43:06;;;;;;;15.35;7.88;;;;;;;11.37;52.08;100183.13;4930047;28;125321;-64
2024/03/09 08:45:34;;;;;;;18.52;8.70;;;;;;;11.48;51.89;100180.72;4931740;28;115106;-64
2024/03/09 08:48:03;;;;;;;16.88;8.25;;;;;;;11.58;51.90;100181.00;4932613;28;114901;-64
2024/03/09 08:50:33;;;;;;;16.35;8.20;;;;;;;11.67;51.66;100169.00;4926348;28;124031;-64
2024/03/09 08:53:01;;;;;;;13.88;7.47;;;;;;;11.76;51.63;100168.44;4925713;28;123762;-64
2024/03/09 08:55:28;;;;;;;16.88;8.32;;;;;;;11.86;51.55;100169.56;4929775;28;114237;-64
2024/03/09 08:57:56;;;;;;;16.50;8.45;;;;;;;11.95;51.48;100167.34;4925753;28;114322;-64
2024/03/09 09:00:26;;;;;;;14.05;7.70;;;;;;;12.03;51.42;100170.38;4928007;28;124193;-64
2024/03/09 09:02:56;;;;;;;19.60;9.13;;;;;;;12.13;51.35;100155.59;4928241;28;123770;-64
2024/03/09 09:05:26;;;;;;;16.63;7.95;;;;;;;12.22;51.37;100155.03;4927066;28;114269;-64
2024/03/09 09:07:55;;;;;;;16.42;7.82;;;;;;;12.31;51.30;100158.03;4918011;28;113769;-65
2024/03/09 09:10:25;;;;;;;15.57;8.02;;;;;;;12.40;51.12;100149.50;4925627;28;125600;-65
2024/03/09 09:12:54;;;;;;;16.05;8.25;;;;;;;12.48;50.99;100138.38;4927133;28;123044;-64
2024/03/09 09:15:24;;;;;;;18.42;8.65;;;;;;;12.55;50.91;100145.84;4927367;28;114720;-64
2024/03/09 09:17:52;;;;;;;15.02;7.68;;;;;;;12.65;50.91;100146.94;4920288;28;114672;-65
2024/03/09 09:20:19;;;;;;;15.05;7.82;;;;;;;12.74;50.66;100150.81;4917327;28;123787;-64
2024/03/09 09:22:47;;;;;;;15.18;7.88;;;;;;;12.83;50.61;100149.38;4935676;28;122831;-65
2024/03/09 09:25:23;;;;;;;18.15;7.85;;;;;;;12.93;50.58;100145.16;4924854;28;114363;-64
2024/03/09 09:27:56;;;;;;;16.08;7.80;;;;;;;13.03;50.55;100138.28;4918053;28;114263;-64
2024/03/09 09:30:26;;;;;;;14.25;7.63;;;;;;;13.14;50.40;100142.00;4921716;28;124147;-64
2024/03/09 09:32:54;;;;;;;15.63;8.20;;;;;;;13.22;50.46;100134.38;4925795;28;123822;-64
2024/03/09 09:35:21;;;;;;;17.33;8.18;;;;;;;13.31;50.41;100144.41;4929128;28;115746;-65
2024/03/09 09:37:49;;;;;;;19.02;8.98;;;;;;;13.47;50.33;100146.03;4931211;28;114854;-64
2024/03/09 09:40:18;;;;;;;15.95;7.88;;;;;;;13.59;50.24;100142.53;4920152;28;125520;-64
2024/03/09 09:42:48;;;;;;;15.00;7.65;;;;;;;13.74;50.12;100141.47;4937116;28;123278;-65
2024/03/09 09:45:26;;;;;;;15.55;8.40;;;;;;;13.89;49.88;100133.38;4925096;28;114077;-65
2024/03/09 09:47:54;;;;;;;16.50;8.13;;;;;;;14.00;49.78;100136.13;4920520;28;113607;-65
2024/03/09 09:50:23;;;;;;;17.23;7.85;;;;;;;14.07;49.60;100126.75;4923993;28;124607;-64
2024/03/09 09:52:51;;;;;;;16.67;8.35;;;;;;;14.08;49.53;100123.13;4918413;28;123633;-65
2024/03/09 09:55:19;;;;;;;17.15;8.73;;;;;;;14.10;49.22;100121.19;4921839;28;114440;-65
2024/03/09 09:57:47;;;;;;;16.17;8.55;;;;;;;14.13;49.22;100121.00;4919896;28;113824;-64
2024/03/09 10:00:16;;;;;;;16.70;8.65;;;;;;;14.13;49.07;100121.00;4923123;28;124516;-70
2024/03/09 10:02:43;;;;;;;14.55;7.97;;;;;;;14.16;49.11;100115.41;4922770;28;122866;-70
2024/03/09 10:05:15;;;;;;;16.50;8.50;;;;;;;14.21;49.09;100107.13;4920273;28;114330;-70
2024/03/09 10:08:06;;;;;;;15.98;8.57;;;;;;;14.24;48.93;100112.25;4929360;28;114008;-70
2024/03/09 10:10:36;;;;;;;17.27;8.52;;;;;;;14.29;48.92;100114.56;4919663;28;124463;-70
2024/03/09 10:13:08;;;;;;;16.52;8.18;;;;;;;14.35;49.00;100108.78;4919601;28;122619;-70
2024/03/09 10:15:38;;;;;;;17.15;8.10;;;;;;;14.39;49.00;100088.94;4929049;28;113912;-69
2024/03/09 10:18:06;;;;;;;16.88;9.10;;;;;;;14.41;48.51;100092.38;4928275;28;114323;-70
2024/03/09 10:20:35;;;;;;;19.65;8.75;;;;;;;14.42;48.56;100094.03;4933233;28;124266;-70
2024/03/09 10:23:04;;;;;;;15.77;8.35;;;;;;;14.45;48.53;100098.28;4923348;28;123587;-69
2024/03/09 10:25:35;;;;;;;16.80;8.45;;;;;;;14.46;48.69;100095.53;4930242;28;115713;-69
2024/03/09 10:28:10;;;;;;;18.30;8.95;;;;;;;14.51;48.52;100093.38;4924458;28;114879;-69
2024/03/09 10:30:38;;;;;;;15.40;8.17;;;;;;;14.54;48.72;100095.81;4919497;28;125175;-69
2024/03/09 10:33:15;;;;;;;16.60;8.23;;;;;;;14.58;48.48;100094.66;4932951;28;122842;-69
2024/03/09 10:35:50;;;;;;;16.23;8.23;;;;;;;14.64;48.44;100087.19;4930722;28;115325;-69
2024/03/09 10:38:19;;;;;;;13.32;7.22;;;;;;;14.69;48.47;100091.22;4924765;28;114143;-69
2024/03/09 10:40:51;;;;;;;16.85;8.73;;;;;;;14.77;48.49;100087.97;4918252;28;124132;-69
2024/03/09 10:43:20;;;;;;;16.20;8.13;;;;;;;14.86;48.42;100087.28;4925026;28;123835;-70
2024/03/09 10:45:51;;;;;;;15.95;7.88;;;;;;;14.91;48.28;100078.94;4919745;28;113593;-70
2024/03/09 10:48:21;;;;;;;15.40;8.40;;;;;;;14.96;48.04;100082.94;4924550;28;114359;-70
2024/03/09 10:50:59;;;;;;;15.95;8.15;;;;;;;15.02;48.20;100083.47;4923081;28;124082;-68
2024/03/09 10:53:55;;;;;;;16.08;8.32;;;;;;;15.11;48.50;100074.75;4925393;28;123988;-68
2024/03/09 10:56:23;;;;;;;14.70;8.43;;;;;;;15.21;48.27;100086.41;4934290;28;113703;-69
2024/03/09 10:58:51;;;;;;;15.75;8.25;;;;;;;15.24;47.90;100082.63;4923842;28;114480;-69
2024/03/09 11:01:21;;;;;;;18.83;8.15;;;;;;;15.24;47.80;100086.19;4922849;28;123905;-68
2024/03/09 11:03:50;;;;;;;16.20;8.07;;;;;;;15.29;47.80;100078.66;4917071;28;123785;-68
2024/03/09 11:06:19;;;;;;;15.48;8.07;;;;;;;15.36;47.66;100073.72;4926741;28;114320;-69
2024/03/09 11:08:49;;;;;;;15.40;7.97;;;;;;;15.45;47.91;100077.50;4927420;28;113162;-69
2024/03/09 11:11:22;;;;;;;16.25;7.80;;;;;;;15.56;47.78;100080.19;4920509;28;124612;-69
2024/03/09 11:13:53;;;;;;;14.95;8.15;;;;;;;15.68;47.59;100068.50;4930140;28;123867;-69
2024/03/09 11:16:23;;;;;;;13.68;7.95;;;;;;;15.80;47.43;100056.03;4923663;28;115213;-69
2024/03/09 11:18:58;;;;;;;17.63;7.95;;;;;;;15.87;47.13;100056.41;4922461;28;115017;-69
2024/03/09 11:21:26;;;;;;;14.13;7.35;;;;;;;15.93;47.20;100051.41;4922763;28;123322;-69